<?xml version="1.0" encoding="UTF-8" standalone="no" ?>
<gpx xmlns="http://www.topografix.com/GPX/1/1" xmlns:xsi="http://www.w3.org/2001/XMLSchema-instance" xsi:schemaLocation="http://www.topografix.com/GPX/1/1 http://www.topografix.com/GPX/1/1/gpx.xsd" version="1.1" creator="VisuGPX - https://www.visugpx.com">
  <metadata>
    <name>Cime de Lancheton</name>
    <desc><![CDATA[Cime de Lancheton en Aller-retour]]></desc>
  </metadata>
  <trk>
    <name><![CDATA[Tracé actuel: 18 FEV 2018 09:52]]></name>
    <trkseg>
      <trkpt lat="45.28452" lon="6.40696">
        <ele>1449.81</ele>
        <time>2018-02-18T08:52:11Z</time>
      </trkpt>
      <trkpt lat="45.28443" lon="6.40667">
        <ele>1476.24</ele>
        <time>2018-02-18T08:52:30Z</time>
      </trkpt>
      <trkpt lat="45.28441" lon="6.40634">
        <ele>1504.12</ele>
        <time>2018-02-18T08:53:02Z</time>
      </trkpt>
      <trkpt lat="45.28446" lon="6.40588">
        <ele>1516.14</ele>
        <time>2018-02-18T08:53:46Z</time>
      </trkpt>
      <trkpt lat="45.2846" lon="6.4056">
        <ele>1521.9</ele>
        <time>2018-02-18T08:54:30Z</time>
      </trkpt>
      <trkpt lat="45.28475" lon="6.40519">
        <ele>1525.75</ele>
        <time>2018-02-18T08:55:16Z</time>
      </trkpt>
      <trkpt lat="45.28491" lon="6.4049">
        <ele>1530.56</ele>
        <time>2018-02-18T08:55:58Z</time>
      </trkpt>
      <trkpt lat="45.28515" lon="6.40476">
        <ele>1539.21</ele>
        <time>2018-02-18T08:57:00Z</time>
      </trkpt>
      <trkpt lat="45.28533" lon="6.40458">
        <ele>1545.46</ele>
        <time>2018-02-18T08:57:51Z</time>
      </trkpt>
      <trkpt lat="45.28553" lon="6.40477">
        <ele>1552.19</ele>
        <time>2018-02-18T08:58:43Z</time>
      </trkpt>
      <trkpt lat="45.28569" lon="6.40455">
        <ele>1557.95</ele>
        <time>2018-02-18T08:59:27Z</time>
      </trkpt>
      <trkpt lat="45.28583" lon="6.40426">
        <ele>1567.09</ele>
        <time>2018-02-18T09:00:31Z</time>
      </trkpt>
      <trkpt lat="45.28598" lon="6.40439">
        <ele>1573.82</ele>
        <time>2018-02-18T09:01:26Z</time>
      </trkpt>
      <trkpt lat="45.28615" lon="6.40442">
        <ele>1580.54</ele>
        <time>2018-02-18T09:02:16Z</time>
      </trkpt>
      <trkpt lat="45.28636" lon="6.4046">
        <ele>1588.24</ele>
        <time>2018-02-18T09:03:12Z</time>
      </trkpt>
      <trkpt lat="45.28658" lon="6.4049">
        <ele>1594</ele>
        <time>2018-02-18T09:04:07Z</time>
      </trkpt>
      <trkpt lat="45.28682" lon="6.40503">
        <ele>1598.33</ele>
        <time>2018-02-18T09:04:49Z</time>
      </trkpt>
      <trkpt lat="45.28702" lon="6.40491">
        <ele>1604.58</ele>
        <time>2018-02-18T09:05:38Z</time>
      </trkpt>
      <trkpt lat="45.28725" lon="6.40515">
        <ele>1611.31</ele>
        <time>2018-02-18T09:06:35Z</time>
      </trkpt>
      <trkpt lat="45.28749" lon="6.40524">
        <ele>1619.48</ele>
        <time>2018-02-18T09:07:29Z</time>
      </trkpt>
      <trkpt lat="45.28769" lon="6.40519">
        <ele>1627.65</ele>
        <time>2018-02-18T09:08:26Z</time>
      </trkpt>
      <trkpt lat="45.28788" lon="6.40528">
        <ele>1633.9</ele>
        <time>2018-02-18T09:09:43Z</time>
      </trkpt>
      <trkpt lat="45.28797" lon="6.40508">
        <ele>1638.22</ele>
        <time>2018-02-18T09:10:54Z</time>
      </trkpt>
      <trkpt lat="45.28818" lon="6.4052">
        <ele>1646.4</ele>
        <time>2018-02-18T09:12:01Z</time>
      </trkpt>
      <trkpt lat="45.28824" lon="6.40517">
        <ele>1648.8</ele>
        <time>2018-02-18T09:13:42Z</time>
      </trkpt>
      <trkpt lat="45.28824" lon="6.40523">
        <ele>1648.32</ele>
        <time>2018-02-18T09:15:10Z</time>
      </trkpt>
      <trkpt lat="45.28842" lon="6.4057">
        <ele>1652.16</ele>
        <time>2018-02-18T09:16:19Z</time>
      </trkpt>
      <trkpt lat="45.2885" lon="6.40601">
        <ele>1654.09</ele>
        <time>2018-02-18T09:16:46Z</time>
      </trkpt>
      <trkpt lat="45.28857" lon="6.40635">
        <ele>1656.97</ele>
        <time>2018-02-18T09:17:16Z</time>
      </trkpt>
      <trkpt lat="45.28857" lon="6.40677">
        <ele>1658.89</ele>
        <time>2018-02-18T09:18:08Z</time>
      </trkpt>
      <trkpt lat="45.2886" lon="6.40711">
        <ele>1661.78</ele>
        <time>2018-02-18T09:18:40Z</time>
      </trkpt>
      <trkpt lat="45.28869" lon="6.40752">
        <ele>1667.54</ele>
        <time>2018-02-18T09:19:22Z</time>
      </trkpt>
      <trkpt lat="45.28886" lon="6.40773">
        <ele>1671.87</ele>
        <time>2018-02-18T09:20:06Z</time>
      </trkpt>
      <trkpt lat="45.28889" lon="6.4076">
        <ele>1674.75</ele>
        <time>2018-02-18T09:22:19Z</time>
      </trkpt>
      <trkpt lat="45.28901" lon="6.40768">
        <ele>1679.08</ele>
        <time>2018-02-18T09:25:58Z</time>
      </trkpt>
      <trkpt lat="45.28928" lon="6.40779">
        <ele>1687.25</ele>
        <time>2018-02-18T09:26:54Z</time>
      </trkpt>
      <trkpt lat="45.2895" lon="6.4079">
        <ele>1695.42</ele>
        <time>2018-02-18T09:27:49Z</time>
      </trkpt>
      <trkpt lat="45.28945" lon="6.40757">
        <ele>1700.71</ele>
        <time>2018-02-18T09:28:30Z</time>
      </trkpt>
      <trkpt lat="45.28961" lon="6.40752">
        <ele>1709.36</ele>
        <time>2018-02-18T09:29:25Z</time>
      </trkpt>
      <trkpt lat="45.28974" lon="6.40729">
        <ele>1717.53</ele>
        <time>2018-02-18T09:30:18Z</time>
      </trkpt>
      <trkpt lat="45.28987" lon="6.40757">
        <ele>1723.3</ele>
        <time>2018-02-18T09:30:59Z</time>
      </trkpt>
      <trkpt lat="45.29007" lon="6.40759">
        <ele>1730.99</ele>
        <time>2018-02-18T09:31:55Z</time>
      </trkpt>
      <trkpt lat="45.29029" lon="6.40765">
        <ele>1738.2</ele>
        <time>2018-02-18T09:32:59Z</time>
      </trkpt>
      <trkpt lat="45.29046" lon="6.40786">
        <ele>1745.41</ele>
        <time>2018-02-18T09:33:55Z</time>
      </trkpt>
      <trkpt lat="45.2907" lon="6.40805">
        <ele>1752.14</ele>
        <time>2018-02-18T09:34:52Z</time>
      </trkpt>
      <trkpt lat="45.29094" lon="6.40811">
        <ele>1759.35</ele>
        <time>2018-02-18T09:35:47Z</time>
      </trkpt>
      <trkpt lat="45.29121" lon="6.40815">
        <ele>1766.56</ele>
        <time>2018-02-18T09:36:43Z</time>
      </trkpt>
      <trkpt lat="45.29146" lon="6.4081">
        <ele>1773.77</ele>
        <time>2018-02-18T09:37:38Z</time>
      </trkpt>
      <trkpt lat="45.29171" lon="6.40806">
        <ele>1780.02</ele>
        <time>2018-02-18T09:38:35Z</time>
      </trkpt>
      <trkpt lat="45.29198" lon="6.40811">
        <ele>1787.71</ele>
        <time>2018-02-18T09:39:34Z</time>
      </trkpt>
      <trkpt lat="45.29222" lon="6.40819">
        <ele>1793.96</ele>
        <time>2018-02-18T09:40:28Z</time>
      </trkpt>
      <trkpt lat="45.29246" lon="6.40823">
        <ele>1801.17</ele>
        <time>2018-02-18T09:41:23Z</time>
      </trkpt>
      <trkpt lat="45.29268" lon="6.40817">
        <ele>1806.94</ele>
        <time>2018-02-18T09:42:18Z</time>
      </trkpt>
      <trkpt lat="45.29285" lon="6.40799">
        <ele>1815.59</ele>
        <time>2018-02-18T09:43:23Z</time>
      </trkpt>
      <trkpt lat="45.29297" lon="6.40778">
        <ele>1823.28</ele>
        <time>2018-02-18T09:44:26Z</time>
      </trkpt>
      <trkpt lat="45.29295" lon="6.40741">
        <ele>1830.49</ele>
        <time>2018-02-18T09:45:20Z</time>
      </trkpt>
      <trkpt lat="45.29315" lon="6.40714">
        <ele>1837.22</ele>
        <time>2018-02-18T09:46:13Z</time>
      </trkpt>
      <trkpt lat="45.29334" lon="6.40701">
        <ele>1843.95</ele>
        <time>2018-02-18T09:47:10Z</time>
      </trkpt>
      <trkpt lat="45.29348" lon="6.40679">
        <ele>1850.68</ele>
        <time>2018-02-18T09:47:58Z</time>
      </trkpt>
      <trkpt lat="45.29375" lon="6.40683">
        <ele>1858.37</ele>
        <time>2018-02-18T09:49:01Z</time>
      </trkpt>
      <trkpt lat="45.29394" lon="6.40705">
        <ele>1866.54</ele>
        <time>2018-02-18T09:50:07Z</time>
      </trkpt>
      <trkpt lat="45.29412" lon="6.40721">
        <ele>1872.79</ele>
        <time>2018-02-18T09:51:01Z</time>
      </trkpt>
      <trkpt lat="45.2943" lon="6.40728">
        <ele>1880.96</ele>
        <time>2018-02-18T09:52:02Z</time>
      </trkpt>
      <trkpt lat="45.29447" lon="6.40738">
        <ele>1887.69</ele>
        <time>2018-02-18T09:52:54Z</time>
      </trkpt>
      <trkpt lat="45.29471" lon="6.40711">
        <ele>1894.9</ele>
        <time>2018-02-18T09:53:54Z</time>
      </trkpt>
      <trkpt lat="45.29493" lon="6.4071">
        <ele>1903.07</ele>
        <time>2018-02-18T09:54:54Z</time>
      </trkpt>
      <trkpt lat="45.29514" lon="6.40683">
        <ele>1910.28</ele>
        <time>2018-02-18T09:55:48Z</time>
      </trkpt>
      <trkpt lat="45.29532" lon="6.40654">
        <ele>1917.97</ele>
        <time>2018-02-18T09:56:48Z</time>
      </trkpt>
      <trkpt lat="45.29547" lon="6.40626">
        <ele>1925.18</ele>
        <time>2018-02-18T09:57:42Z</time>
      </trkpt>
      <trkpt lat="45.29567" lon="6.40607">
        <ele>1933.83</ele>
        <time>2018-02-18T09:58:45Z</time>
      </trkpt>
      <trkpt lat="45.29589" lon="6.40597">
        <ele>1941.04</ele>
        <time>2018-02-18T09:59:46Z</time>
      </trkpt>
      <trkpt lat="45.29595" lon="6.40561">
        <ele>1947.29</ele>
        <time>2018-02-18T10:00:40Z</time>
      </trkpt>
      <trkpt lat="45.29604" lon="6.40524">
        <ele>1954.98</ele>
        <time>2018-02-18T10:01:45Z</time>
      </trkpt>
      <trkpt lat="45.29613" lon="6.40492">
        <ele>1961.71</ele>
        <time>2018-02-18T10:02:38Z</time>
      </trkpt>
      <trkpt lat="45.29621" lon="6.40458">
        <ele>1968.44</ele>
        <time>2018-02-18T10:03:31Z</time>
      </trkpt>
      <trkpt lat="45.29627" lon="6.40422">
        <ele>1976.13</ele>
        <time>2018-02-18T10:04:28Z</time>
      </trkpt>
      <trkpt lat="45.29644" lon="6.4042">
        <ele>1983.34</ele>
        <time>2018-02-18T10:05:33Z</time>
      </trkpt>
      <trkpt lat="45.29653" lon="6.40379">
        <ele>1991.03</ele>
        <time>2018-02-18T10:06:38Z</time>
      </trkpt>
      <trkpt lat="45.29646" lon="6.40346">
        <ele>1997.28</ele>
        <time>2018-02-18T10:07:29Z</time>
      </trkpt>
      <trkpt lat="45.29647" lon="6.40308">
        <ele>2006.41</ele>
        <time>2018-02-18T10:08:33Z</time>
      </trkpt>
      <trkpt lat="45.2965" lon="6.40289">
        <ele>2009.77</ele>
        <time>2018-02-18T10:10:07Z</time>
      </trkpt>
      <trkpt lat="45.29651" lon="6.40292">
        <ele>2011.7</ele>
        <time>2018-02-18T10:17:01Z</time>
      </trkpt>
      <trkpt lat="45.29654" lon="6.40275">
        <ele>2014.1</ele>
        <time>2018-02-18T10:21:28Z</time>
      </trkpt>
      <trkpt lat="45.29664" lon="6.4025">
        <ele>2019.39</ele>
        <time>2018-02-18T10:22:54Z</time>
      </trkpt>
      <trkpt lat="45.29673" lon="6.40216">
        <ele>2027.08</ele>
        <time>2018-02-18T10:23:43Z</time>
      </trkpt>
      <trkpt lat="45.29689" lon="6.40207">
        <ele>2034.77</ele>
        <time>2018-02-18T10:24:33Z</time>
      </trkpt>
      <trkpt lat="45.29704" lon="6.40192">
        <ele>2042.94</ele>
        <time>2018-02-18T10:25:36Z</time>
      </trkpt>
      <trkpt lat="45.29715" lon="6.40155">
        <ele>2049.67</ele>
        <time>2018-02-18T10:26:27Z</time>
      </trkpt>
      <trkpt lat="45.29721" lon="6.40119">
        <ele>2057.36</ele>
        <time>2018-02-18T10:27:20Z</time>
      </trkpt>
      <trkpt lat="45.29723" lon="6.40085">
        <ele>2065.53</ele>
        <time>2018-02-18T10:28:13Z</time>
      </trkpt>
      <trkpt lat="45.29727" lon="6.40052">
        <ele>2072.74</ele>
        <time>2018-02-18T10:28:59Z</time>
      </trkpt>
      <trkpt lat="45.29736" lon="6.40019">
        <ele>2079.95</ele>
        <time>2018-02-18T10:29:50Z</time>
      </trkpt>
      <trkpt lat="45.29739" lon="6.39981">
        <ele>2087.64</ele>
        <time>2018-02-18T10:30:42Z</time>
      </trkpt>
      <trkpt lat="45.2976" lon="6.39992">
        <ele>2093.89</ele>
        <time>2018-02-18T10:33:06Z</time>
      </trkpt>
      <trkpt lat="45.2977" lon="6.40021">
        <ele>2096.29</ele>
        <time>2018-02-18T10:34:30Z</time>
      </trkpt>
      <trkpt lat="45.29785" lon="6.40062">
        <ele>2097.73</ele>
        <time>2018-02-18T10:35:07Z</time>
      </trkpt>
      <trkpt lat="45.29805" lon="6.40084">
        <ele>2103.98</ele>
        <time>2018-02-18T10:35:48Z</time>
      </trkpt>
      <trkpt lat="45.29822" lon="6.40108">
        <ele>2106.87</ele>
        <time>2018-02-18T10:36:22Z</time>
      </trkpt>
      <trkpt lat="45.29846" lon="6.40135">
        <ele>2111.67</ele>
        <time>2018-02-18T10:37:04Z</time>
      </trkpt>
      <trkpt lat="45.29867" lon="6.40151">
        <ele>2116.48</ele>
        <time>2018-02-18T10:37:44Z</time>
      </trkpt>
      <trkpt lat="45.29889" lon="6.4016">
        <ele>2122.25</ele>
        <time>2018-02-18T10:38:24Z</time>
      </trkpt>
      <trkpt lat="45.29912" lon="6.40172">
        <ele>2126.09</ele>
        <time>2018-02-18T10:39:00Z</time>
      </trkpt>
      <trkpt lat="45.2994" lon="6.40186">
        <ele>2130.9</ele>
        <time>2018-02-18T10:39:44Z</time>
      </trkpt>
      <trkpt lat="45.29964" lon="6.40201">
        <ele>2138.59</ele>
        <time>2018-02-18T10:40:35Z</time>
      </trkpt>
      <trkpt lat="45.29985" lon="6.40212">
        <ele>2144.84</ele>
        <time>2018-02-18T10:41:21Z</time>
      </trkpt>
      <trkpt lat="45.30009" lon="6.40229">
        <ele>2152.05</ele>
        <time>2018-02-18T10:42:17Z</time>
      </trkpt>
      <trkpt lat="45.30027" lon="6.40248">
        <ele>2159.26</ele>
        <time>2018-02-18T10:43:09Z</time>
      </trkpt>
      <trkpt lat="45.30049" lon="6.40273">
        <ele>2168.39</ele>
        <time>2018-02-18T10:44:12Z</time>
      </trkpt>
      <trkpt lat="45.30071" lon="6.40296">
        <ele>2175.6</ele>
        <time>2018-02-18T10:45:10Z</time>
      </trkpt>
      <trkpt lat="45.3009" lon="6.40317">
        <ele>2181.37</ele>
        <time>2018-02-18T10:46:04Z</time>
      </trkpt>
      <trkpt lat="45.30114" lon="6.4034">
        <ele>2187.62</ele>
        <time>2018-02-18T10:47:02Z</time>
      </trkpt>
      <trkpt lat="45.30121" lon="6.40367">
        <ele>2195.79</ele>
        <time>2018-02-18T10:47:51Z</time>
      </trkpt>
      <trkpt lat="45.30126" lon="6.40391">
        <ele>2200.59</ele>
        <time>2018-02-18T10:48:36Z</time>
      </trkpt>
      <trkpt lat="45.3015" lon="6.40406">
        <ele>2208.29</ele>
        <time>2018-02-18T10:49:37Z</time>
      </trkpt>
      <trkpt lat="45.30171" lon="6.40427">
        <ele>2216.94</ele>
        <time>2018-02-18T10:50:49Z</time>
      </trkpt>
      <trkpt lat="45.30186" lon="6.40451">
        <ele>2225.59</ele>
        <time>2018-02-18T10:52:08Z</time>
      </trkpt>
      <trkpt lat="45.30202" lon="6.40479">
        <ele>2234.72</ele>
        <time>2018-02-18T10:53:18Z</time>
      </trkpt>
      <trkpt lat="45.30214" lon="6.40511">
        <ele>2244.33</ele>
        <time>2018-02-18T10:54:35Z</time>
      </trkpt>
      <trkpt lat="45.30226" lon="6.40541">
        <ele>2252.51</ele>
        <time>2018-02-18T10:55:38Z</time>
      </trkpt>
      <trkpt lat="45.3023" lon="6.40578">
        <ele>2261.16</ele>
        <time>2018-02-18T10:56:41Z</time>
      </trkpt>
      <trkpt lat="45.30245" lon="6.406">
        <ele>2269.33</ele>
        <time>2018-02-18T10:57:33Z</time>
      </trkpt>
      <trkpt lat="45.30262" lon="6.40619">
        <ele>2275.1</ele>
        <time>2018-02-18T10:58:46Z</time>
      </trkpt>
      <trkpt lat="45.30282" lon="6.40633">
        <ele>2285.67</ele>
        <time>2018-02-18T10:59:42Z</time>
      </trkpt>
      <trkpt lat="45.30307" lon="6.4066">
        <ele>2288.08</ele>
        <time>2018-02-18T11:00:29Z</time>
      </trkpt>
      <trkpt lat="45.30318" lon="6.40668">
        <ele>2289.52</ele>
        <time>2018-02-18T11:04:18Z</time>
      </trkpt>
      <trkpt lat="45.30324" lon="6.4067">
        <ele>2291.92</ele>
        <time>2018-02-18T11:11:40Z</time>
      </trkpt>
      <trkpt lat="45.30344" lon="6.40699">
        <ele>2296.25</ele>
        <time>2018-02-18T11:12:23Z</time>
      </trkpt>
      <trkpt lat="45.30366" lon="6.40721">
        <ele>2302.49</ele>
        <time>2018-02-18T11:13:11Z</time>
      </trkpt>
      <trkpt lat="45.30381" lon="6.40746">
        <ele>2309.7</ele>
        <time>2018-02-18T11:14:10Z</time>
      </trkpt>
      <trkpt lat="45.30398" lon="6.40757">
        <ele>2318.84</ele>
        <time>2018-02-18T11:16:02Z</time>
      </trkpt>
      <trkpt lat="45.30408" lon="6.40755">
        <ele>2325.57</ele>
        <time>2018-02-18T11:17:23Z</time>
      </trkpt>
      <trkpt lat="45.3042" lon="6.40754">
        <ele>2332.78</ele>
        <time>2018-02-18T11:18:34Z</time>
      </trkpt>
      <trkpt lat="45.3044" lon="6.40769">
        <ele>2340.47</ele>
        <time>2018-02-18T11:20:36Z</time>
      </trkpt>
      <trkpt lat="45.30459" lon="6.40783">
        <ele>2349.12</ele>
        <time>2018-02-18T11:21:41Z</time>
      </trkpt>
      <trkpt lat="45.30486" lon="6.40792">
        <ele>2358.25</ele>
        <time>2018-02-18T11:22:58Z</time>
      </trkpt>
      <trkpt lat="45.3051" lon="6.40804">
        <ele>2366.42</ele>
        <time>2018-02-18T11:24:03Z</time>
      </trkpt>
      <trkpt lat="45.30536" lon="6.40816">
        <ele>2374.11</ele>
        <time>2018-02-18T11:25:03Z</time>
      </trkpt>
      <trkpt lat="45.30558" lon="6.4083">
        <ele>2381.32</ele>
        <time>2018-02-18T11:26:08Z</time>
      </trkpt>
      <trkpt lat="45.30585" lon="6.40835">
        <ele>2389.97</ele>
        <time>2018-02-18T11:27:10Z</time>
      </trkpt>
      <trkpt lat="45.30609" lon="6.40842">
        <ele>2398.15</ele>
        <time>2018-02-18T11:28:10Z</time>
      </trkpt>
      <trkpt lat="45.30636" lon="6.40859">
        <ele>2407.28</ele>
        <time>2018-02-18T11:29:17Z</time>
      </trkpt>
      <trkpt lat="45.30661" lon="6.40877">
        <ele>2415.93</ele>
        <time>2018-02-18T11:30:27Z</time>
      </trkpt>
      <trkpt lat="45.30682" lon="6.40891">
        <ele>2422.18</ele>
        <time>2018-02-18T11:31:15Z</time>
      </trkpt>
      <trkpt lat="45.30704" lon="6.40911">
        <ele>2428.43</ele>
        <time>2018-02-18T11:32:06Z</time>
      </trkpt>
      <trkpt lat="45.30717" lon="6.40923">
        <ele>2428.43</ele>
        <time>2018-02-18T11:36:28Z</time>
      </trkpt>
      <trkpt lat="45.3072" lon="6.40924">
        <ele>2426.99</ele>
        <time>2018-02-18T11:44:32Z</time>
      </trkpt>
      <trkpt lat="45.30719" lon="6.40922">
        <ele>2425.06</ele>
        <time>2018-02-18T11:58:43Z</time>
      </trkpt>
      <trkpt lat="45.30719" lon="6.40922">
        <ele>2423.62</ele>
        <time>2018-02-18T12:08:10Z</time>
      </trkpt>
      <trkpt lat="45.30717" lon="6.40922">
        <ele>2424.1</ele>
        <time>2018-02-18T12:14:27Z</time>
      </trkpt>
      <trkpt lat="45.30691" lon="6.40909">
        <ele>2419.3</ele>
        <time>2018-02-18T12:20:59Z</time>
      </trkpt>
      <trkpt lat="45.30663" lon="6.40891">
        <ele>2410.64</ele>
        <time>2018-02-18T12:21:09Z</time>
      </trkpt>
      <trkpt lat="45.30641" lon="6.40866">
        <ele>2402.95</ele>
        <time>2018-02-18T12:21:27Z</time>
      </trkpt>
      <trkpt lat="45.30623" lon="6.40871">
        <ele>2395.74</ele>
        <time>2018-02-18T12:21:49Z</time>
      </trkpt>
      <trkpt lat="45.3061" lon="6.40866">
        <ele>2389.49</ele>
        <time>2018-02-18T12:22:41Z</time>
      </trkpt>
      <trkpt lat="45.30592" lon="6.40843">
        <ele>2385.65</ele>
        <time>2018-02-18T12:22:56Z</time>
      </trkpt>
      <trkpt lat="45.30578" lon="6.40839">
        <ele>2381.32</ele>
        <time>2018-02-18T12:24:49Z</time>
      </trkpt>
      <trkpt lat="45.30544" lon="6.40825">
        <ele>2369.79</ele>
        <time>2018-02-18T12:25:04Z</time>
      </trkpt>
      <trkpt lat="45.30518" lon="6.40812">
        <ele>2361.14</ele>
        <time>2018-02-18T12:25:20Z</time>
      </trkpt>
      <trkpt lat="45.30496" lon="6.40798">
        <ele>2355.37</ele>
        <time>2018-02-18T12:25:29Z</time>
      </trkpt>
      <trkpt lat="45.30475" lon="6.40792">
        <ele>2348.64</ele>
        <time>2018-02-18T12:26:17Z</time>
      </trkpt>
      <trkpt lat="45.30452" lon="6.40785">
        <ele>2340.47</ele>
        <time>2018-02-18T12:26:25Z</time>
      </trkpt>
      <trkpt lat="45.30434" lon="6.40768">
        <ele>2330.85</ele>
        <time>2018-02-18T12:26:32Z</time>
      </trkpt>
      <trkpt lat="45.3041" lon="6.40745">
        <ele>2322.2</ele>
        <time>2018-02-18T12:26:43Z</time>
      </trkpt>
      <trkpt lat="45.30403" lon="6.40766">
        <ele>2315.47</ele>
        <time>2018-02-18T12:28:29Z</time>
      </trkpt>
      <trkpt lat="45.30409" lon="6.40811">
        <ele>2311.63</ele>
        <time>2018-02-18T12:29:08Z</time>
      </trkpt>
      <trkpt lat="45.30403" lon="6.40841">
        <ele>2301.05</ele>
        <time>2018-02-18T12:29:29Z</time>
      </trkpt>
      <trkpt lat="45.30392" lon="6.40868">
        <ele>2290.96</ele>
        <time>2018-02-18T12:29:38Z</time>
      </trkpt>
      <trkpt lat="45.30381" lon="6.40889">
        <ele>2282.31</ele>
        <time>2018-02-18T12:29:55Z</time>
      </trkpt>
      <trkpt lat="45.30361" lon="6.40906">
        <ele>2273.17</ele>
        <time>2018-02-18T12:31:37Z</time>
      </trkpt>
      <trkpt lat="45.30337" lon="6.409">
        <ele>2265</ele>
        <time>2018-02-18T12:31:46Z</time>
      </trkpt>
      <trkpt lat="45.30323" lon="6.40895">
        <ele>2258.75</ele>
        <time>2018-02-18T12:32:20Z</time>
      </trkpt>
      <trkpt lat="45.30303" lon="6.40876">
        <ele>2247.22</ele>
        <time>2018-02-18T12:32:30Z</time>
      </trkpt>
      <trkpt lat="45.30277" lon="6.4086">
        <ele>2233.28</ele>
        <time>2018-02-18T12:32:41Z</time>
      </trkpt>
      <trkpt lat="45.3026" lon="6.40841">
        <ele>2227.51</ele>
        <time>2018-02-18T12:34:17Z</time>
      </trkpt>
      <trkpt lat="45.30243" lon="6.40824">
        <ele>2219.82</ele>
        <time>2018-02-18T12:34:25Z</time>
      </trkpt>
      <trkpt lat="45.30229" lon="6.40846">
        <ele>2212.13</ele>
        <time>2018-02-18T12:34:41Z</time>
      </trkpt>
      <trkpt lat="45.30211" lon="6.40835">
        <ele>2204.44</ele>
        <time>2018-02-18T12:34:57Z</time>
      </trkpt>
      <trkpt lat="45.30201" lon="6.40858">
        <ele>2198.19</ele>
        <time>2018-02-18T12:35:08Z</time>
      </trkpt>
      <trkpt lat="45.30188" lon="6.40852">
        <ele>2191.94</ele>
        <time>2018-02-18T12:35:58Z</time>
      </trkpt>
      <trkpt lat="45.30171" lon="6.40844">
        <ele>2182.81</ele>
        <time>2018-02-18T12:36:11Z</time>
      </trkpt>
      <trkpt lat="45.30153" lon="6.40857">
        <ele>2173.68</ele>
        <time>2018-02-18T12:36:20Z</time>
      </trkpt>
      <trkpt lat="45.30131" lon="6.40862">
        <ele>2160.7</ele>
        <time>2018-02-18T12:36:31Z</time>
      </trkpt>
      <trkpt lat="45.30122" lon="6.40849">
        <ele>2156.86</ele>
        <time>2018-02-18T12:40:01Z</time>
      </trkpt>
      <trkpt lat="45.30112" lon="6.4082">
        <ele>2153.97</ele>
        <time>2018-02-18T12:40:09Z</time>
      </trkpt>
      <trkpt lat="45.30106" lon="6.40837">
        <ele>2148.2</ele>
        <time>2018-02-18T12:40:35Z</time>
      </trkpt>
      <trkpt lat="45.30095" lon="6.40861">
        <ele>2142.44</ele>
        <time>2018-02-18T12:40:47Z</time>
      </trkpt>
      <trkpt lat="45.30075" lon="6.40876">
        <ele>2132.34</ele>
        <time>2018-02-18T12:40:55Z</time>
      </trkpt>
      <trkpt lat="45.30053" lon="6.40877">
        <ele>2118.88</ele>
        <time>2018-02-18T12:41:05Z</time>
      </trkpt>
      <trkpt lat="45.30038" lon="6.40883">
        <ele>2112.63</ele>
        <time>2018-02-18T12:43:19Z</time>
      </trkpt>
      <trkpt lat="45.3002" lon="6.40899">
        <ele>2102.06</ele>
        <time>2018-02-18T12:43:27Z</time>
      </trkpt>
      <trkpt lat="45.29995" lon="6.409">
        <ele>2088.6</ele>
        <time>2018-02-18T12:43:35Z</time>
      </trkpt>
      <trkpt lat="45.29982" lon="6.40906">
        <ele>2082.35</ele>
        <time>2018-02-18T12:43:43Z</time>
      </trkpt>
      <trkpt lat="45.29972" lon="6.40907">
        <ele>2073.7</ele>
        <time>2018-02-18T12:45:12Z</time>
      </trkpt>
      <trkpt lat="45.29953" lon="6.40912">
        <ele>2064.09</ele>
        <time>2018-02-18T12:45:20Z</time>
      </trkpt>
      <trkpt lat="45.29935" lon="6.40907">
        <ele>2051.11</ele>
        <time>2018-02-18T12:45:29Z</time>
      </trkpt>
      <trkpt lat="45.29926" lon="6.40902">
        <ele>2045.34</ele>
        <time>2018-02-18T12:49:23Z</time>
      </trkpt>
      <trkpt lat="45.2991" lon="6.40904">
        <ele>2035.25</ele>
        <time>2018-02-18T12:49:32Z</time>
      </trkpt>
      <trkpt lat="45.29898" lon="6.40898">
        <ele>2027.56</ele>
        <time>2018-02-18T12:49:43Z</time>
      </trkpt>
      <trkpt lat="45.2988" lon="6.40878">
        <ele>2018.91</ele>
        <time>2018-02-18T12:50:49Z</time>
      </trkpt>
      <trkpt lat="45.29863" lon="6.40882">
        <ele>2010.25</ele>
        <time>2018-02-18T12:50:57Z</time>
      </trkpt>
      <trkpt lat="45.2985" lon="6.40854">
        <ele>2005.45</ele>
        <time>2018-02-18T12:51:11Z</time>
      </trkpt>
      <trkpt lat="45.29841" lon="6.40867">
        <ele>2000.16</ele>
        <time>2018-02-18T12:51:45Z</time>
      </trkpt>
      <trkpt lat="45.29833" lon="6.40835">
        <ele>1996.32</ele>
        <time>2018-02-18T12:53:34Z</time>
      </trkpt>
      <trkpt lat="45.2982" lon="6.40855">
        <ele>1990.55</ele>
        <time>2018-02-18T12:53:43Z</time>
      </trkpt>
      <trkpt lat="45.29813" lon="6.40828">
        <ele>1986.7</ele>
        <time>2018-02-18T12:54:38Z</time>
      </trkpt>
      <trkpt lat="45.29792" lon="6.40804">
        <ele>1981.9</ele>
        <time>2018-02-18T12:55:05Z</time>
      </trkpt>
      <trkpt lat="45.29763" lon="6.40785">
        <ele>1976.61</ele>
        <time>2018-02-18T12:55:13Z</time>
      </trkpt>
      <trkpt lat="45.29743" lon="6.40767">
        <ele>1971.32</ele>
        <time>2018-02-18T12:56:37Z</time>
      </trkpt>
      <trkpt lat="45.29724" lon="6.40732">
        <ele>1966.51</ele>
        <time>2018-02-18T12:57:31Z</time>
      </trkpt>
      <trkpt lat="45.29705" lon="6.40705">
        <ele>1962.19</ele>
        <time>2018-02-18T12:57:53Z</time>
      </trkpt>
      <trkpt lat="45.29689" lon="6.4068">
        <ele>1958.82</ele>
        <time>2018-02-18T12:58:16Z</time>
      </trkpt>
      <trkpt lat="45.29668" lon="6.40653">
        <ele>1956.9</ele>
        <time>2018-02-18T12:58:41Z</time>
      </trkpt>
      <trkpt lat="45.29649" lon="6.40617">
        <ele>1954.02</ele>
        <time>2018-02-18T12:59:34Z</time>
      </trkpt>
      <trkpt lat="45.29629" lon="6.406">
        <ele>1948.25</ele>
        <time>2018-02-18T13:00:08Z</time>
      </trkpt>
      <trkpt lat="45.29613" lon="6.40597">
        <ele>1943.44</ele>
        <time>2018-02-18T13:00:35Z</time>
      </trkpt>
      <trkpt lat="45.29599" lon="6.40614">
        <ele>1936.23</ele>
        <time>2018-02-18T13:01:04Z</time>
      </trkpt>
      <trkpt lat="45.29577" lon="6.406">
        <ele>1932.39</ele>
        <time>2018-02-18T13:01:43Z</time>
      </trkpt>
      <trkpt lat="45.29566" lon="6.40619">
        <ele>1925.66</ele>
        <time>2018-02-18T13:02:07Z</time>
      </trkpt>
      <trkpt lat="45.29558" lon="6.4063">
        <ele>1920.85</ele>
        <time>2018-02-18T13:02:17Z</time>
      </trkpt>
      <trkpt lat="45.2954" lon="6.40648">
        <ele>1914.12</ele>
        <time>2018-02-18T13:02:28Z</time>
      </trkpt>
      <trkpt lat="45.29519" lon="6.40676">
        <ele>1906.43</ele>
        <time>2018-02-18T13:02:45Z</time>
      </trkpt>
      <trkpt lat="45.295" lon="6.40701">
        <ele>1899.7</ele>
        <time>2018-02-18T13:02:56Z</time>
      </trkpt>
      <trkpt lat="45.29473" lon="6.40708">
        <ele>1890.57</ele>
        <time>2018-02-18T13:04:16Z</time>
      </trkpt>
      <trkpt lat="45.29453" lon="6.40733">
        <ele>1884.8</ele>
        <time>2018-02-18T13:04:24Z</time>
      </trkpt>
      <trkpt lat="45.29436" lon="6.40749">
        <ele>1878.07</ele>
        <time>2018-02-18T13:04:51Z</time>
      </trkpt>
      <trkpt lat="45.29419" lon="6.40718">
        <ele>1870.86</ele>
        <time>2018-02-18T13:05:00Z</time>
      </trkpt>
      <trkpt lat="45.29394" lon="6.40697">
        <ele>1860.29</ele>
        <time>2018-02-18T13:05:07Z</time>
      </trkpt>
      <trkpt lat="45.29382" lon="6.40694">
        <ele>1854.52</ele>
        <time>2018-02-18T13:05:54Z</time>
      </trkpt>
      <trkpt lat="45.29364" lon="6.40717">
        <ele>1845.87</ele>
        <time>2018-02-18T13:06:04Z</time>
      </trkpt>
      <trkpt lat="45.2935" lon="6.40747">
        <ele>1837.7</ele>
        <time>2018-02-18T13:06:11Z</time>
      </trkpt>
      <trkpt lat="45.29335" lon="6.4078">
        <ele>1830.97</ele>
        <time>2018-02-18T13:06:20Z</time>
      </trkpt>
      <trkpt lat="45.29312" lon="6.40798">
        <ele>1821.84</ele>
        <time>2018-02-18T13:06:30Z</time>
      </trkpt>
      <trkpt lat="45.29293" lon="6.40797">
        <ele>1814.15</ele>
        <time>2018-02-18T13:07:07Z</time>
      </trkpt>
      <trkpt lat="45.29273" lon="6.4082">
        <ele>1801.65</ele>
        <time>2018-02-18T13:07:21Z</time>
      </trkpt>
      <trkpt lat="45.29255" lon="6.40836">
        <ele>1795.4</ele>
        <time>2018-02-18T13:08:36Z</time>
      </trkpt>
      <trkpt lat="45.29231" lon="6.40836">
        <ele>1789.15</ele>
        <time>2018-02-18T13:08:47Z</time>
      </trkpt>
      <trkpt lat="45.29198" lon="6.40841">
        <ele>1778.1</ele>
        <time>2018-02-18T13:08:57Z</time>
      </trkpt>
      <trkpt lat="45.29161" lon="6.4082">
        <ele>1771.85</ele>
        <time>2018-02-18T13:09:06Z</time>
      </trkpt>
      <trkpt lat="45.29128" lon="6.4081">
        <ele>1766.08</ele>
        <time>2018-02-18T13:09:16Z</time>
      </trkpt>
      <trkpt lat="45.29105" lon="6.40804">
        <ele>1761.27</ele>
        <time>2018-02-18T13:09:34Z</time>
      </trkpt>
      <trkpt lat="45.29085" lon="6.40801">
        <ele>1755.5</ele>
        <time>2018-02-18T13:10:23Z</time>
      </trkpt>
      <trkpt lat="45.29052" lon="6.40775">
        <ele>1750.22</ele>
        <time>2018-02-18T13:10:47Z</time>
      </trkpt>
      <trkpt lat="45.29035" lon="6.40748">
        <ele>1744.45</ele>
        <time>2018-02-18T13:12:59Z</time>
      </trkpt>
      <trkpt lat="45.29016" lon="6.40726">
        <ele>1737.72</ele>
        <time>2018-02-18T13:13:45Z</time>
      </trkpt>
      <trkpt lat="45.28995" lon="6.40704">
        <ele>1730.99</ele>
        <time>2018-02-18T13:14:12Z</time>
      </trkpt>
      <trkpt lat="45.28983" lon="6.40703">
        <ele>1722.82</ele>
        <time>2018-02-18T13:14:24Z</time>
      </trkpt>
      <trkpt lat="45.28965" lon="6.40674">
        <ele>1715.13</ele>
        <time>2018-02-18T13:14:43Z</time>
      </trkpt>
      <trkpt lat="45.28956" lon="6.407">
        <ele>1710.32</ele>
        <time>2018-02-18T13:15:44Z</time>
      </trkpt>
      <trkpt lat="45.28951" lon="6.40729">
        <ele>1704.07</ele>
        <time>2018-02-18T13:16:21Z</time>
      </trkpt>
      <trkpt lat="45.2893" lon="6.40734">
        <ele>1695.42</ele>
        <time>2018-02-18T13:16:30Z</time>
      </trkpt>
      <trkpt lat="45.28911" lon="6.40723">
        <ele>1686.77</ele>
        <time>2018-02-18T13:16:42Z</time>
      </trkpt>
      <trkpt lat="45.28886" lon="6.40707">
        <ele>1679.56</ele>
        <time>2018-02-18T13:17:14Z</time>
      </trkpt>
      <trkpt lat="45.28879" lon="6.40682">
        <ele>1673.31</ele>
        <time>2018-02-18T13:17:32Z</time>
      </trkpt>
      <trkpt lat="45.28877" lon="6.40644">
        <ele>1671.39</ele>
        <time>2018-02-18T13:18:18Z</time>
      </trkpt>
      <trkpt lat="45.28863" lon="6.40644">
        <ele>1659.37</ele>
        <time>2018-02-18T13:18:52Z</time>
      </trkpt>
      <trkpt lat="45.2885" lon="6.40606">
        <ele>1652.16</ele>
        <time>2018-02-18T13:19:00Z</time>
      </trkpt>
      <trkpt lat="45.28842" lon="6.40585">
        <ele>1650.72</ele>
        <time>2018-02-18T13:20:15Z</time>
      </trkpt>
      <trkpt lat="45.2883" lon="6.40537">
        <ele>1648.32</ele>
        <time>2018-02-18T13:20:31Z</time>
      </trkpt>
      <trkpt lat="45.28817" lon="6.40516">
        <ele>1645.43</ele>
        <time>2018-02-18T13:20:51Z</time>
      </trkpt>
      <trkpt lat="45.28797" lon="6.40521">
        <ele>1638.22</ele>
        <time>2018-02-18T13:21:03Z</time>
      </trkpt>
      <trkpt lat="45.28774" lon="6.40512">
        <ele>1628.61</ele>
        <time>2018-02-18T13:21:18Z</time>
      </trkpt>
      <trkpt lat="45.28749" lon="6.40508">
        <ele>1619.96</ele>
        <time>2018-02-18T13:21:27Z</time>
      </trkpt>
      <trkpt lat="45.2873" lon="6.40502">
        <ele>1612.27</ele>
        <time>2018-02-18T13:21:47Z</time>
      </trkpt>
      <trkpt lat="45.28713" lon="6.40478">
        <ele>1610.35</ele>
        <time>2018-02-18T13:21:59Z</time>
      </trkpt>
      <trkpt lat="45.28692" lon="6.40476">
        <ele>1604.58</ele>
        <time>2018-02-18T13:22:53Z</time>
      </trkpt>
      <trkpt lat="45.28671" lon="6.40487">
        <ele>1595.93</ele>
        <time>2018-02-18T13:22:59Z</time>
      </trkpt>
      <trkpt lat="45.28642" lon="6.4048">
        <ele>1588.72</ele>
        <time>2018-02-18T13:23:05Z</time>
      </trkpt>
      <trkpt lat="45.28616" lon="6.40449">
        <ele>1582.95</ele>
        <time>2018-02-18T13:23:19Z</time>
      </trkpt>
      <trkpt lat="45.28597" lon="6.40443">
        <ele>1573.82</ele>
        <time>2018-02-18T13:24:57Z</time>
      </trkpt>
      <trkpt lat="45.28577" lon="6.40433">
        <ele>1564.2</ele>
        <time>2018-02-18T13:25:07Z</time>
      </trkpt>
      <trkpt lat="45.28553" lon="6.40437">
        <ele>1552.67</ele>
        <time>2018-02-18T13:25:14Z</time>
      </trkpt>
      <trkpt lat="45.28525" lon="6.40437">
        <ele>1545.94</ele>
        <time>2018-02-18T13:25:20Z</time>
      </trkpt>
      <trkpt lat="45.2853" lon="6.40469">
        <ele>1545.94</ele>
        <time>2018-02-18T13:25:32Z</time>
      </trkpt>
      <trkpt lat="45.28512" lon="6.40445">
        <ele>1540.65</ele>
        <time>2018-02-18T13:25:51Z</time>
      </trkpt>
      <trkpt lat="45.28499" lon="6.40486">
        <ele>1534.4</ele>
        <time>2018-02-18T13:26:27Z</time>
      </trkpt>
      <trkpt lat="45.28478" lon="6.40497">
        <ele>1528.15</ele>
        <time>2018-02-18T13:26:36Z</time>
      </trkpt>
      <trkpt lat="45.28466" lon="6.40529">
        <ele>1524.31</ele>
        <time>2018-02-18T13:26:44Z</time>
      </trkpt>
      <trkpt lat="45.28455" lon="6.40558">
        <ele>1521.9</ele>
        <time>2018-02-18T13:26:51Z</time>
      </trkpt>
      <trkpt lat="45.28445" lon="6.40585">
        <ele>1517.1</ele>
        <time>2018-02-18T13:27:15Z</time>
      </trkpt>
      <trkpt lat="45.28445" lon="6.4062">
        <ele>1513.73</ele>
        <time>2018-02-18T13:27:23Z</time>
      </trkpt>
      <trkpt lat="45.28447" lon="6.40661">
        <ele>1511.33</ele>
        <time>2018-02-18T13:27:32Z</time>
      </trkpt>
      <trkpt lat="45.28446" lon="6.40696">
        <ele>1507</ele>
        <time>2018-02-18T13:27:46Z</time>
      </trkpt>
      <trkpt lat="45.28442" lon="6.40732">
        <ele>1503.64</ele>
        <time>2018-02-18T13:27:57Z</time>
      </trkpt>
      <trkpt lat="45.28441" lon="6.40767">
        <ele>1499.31</ele>
        <time>2018-02-18T13:28:08Z</time>
      </trkpt>
      <trkpt lat="45.28433" lon="6.40788">
        <ele>1496.91</ele>
        <time>2018-02-18T13:29:05Z</time>
      </trkpt>
      <trkpt lat="45.28442" lon="6.40809">
        <ele>1494.51</ele>
        <time>2018-02-18T13:31:02Z</time>
      </trkpt>
      <trkpt lat="45.28455" lon="6.40847">
        <ele>1492.58</ele>
        <time>2018-02-18T13:31:35Z</time>
      </trkpt>
      <trkpt lat="45.28449" lon="6.40856">
        <ele>1493.55</ele>
        <time>2018-02-18T13:32:34Z</time>
      </trkpt>
      <trkpt lat="45.28454" lon="6.40856">
        <ele>1493.55</ele>
        <time>2018-02-18T13:33:43Z</time>
      </trkpt>
    </trkseg>
  </trk>
</gpx>